sensor_id;sensor_type;location;lat;lon;timestamp;temperature;humidity
59128;DHT22;44912;52.754;5.994;2023-07-20T00:01:07;15.00;99.90
59128;DHT22;44912;52.754;5.994;2023-07-20T00:03:33;15.00;99.90
59128;DHT22;44912;52.754;5.994;2023-07-20T00:05:58;14.90;99.90
59128;DHT22;44912;52.754;5.994;2023-07-20T00:08:24;14.90;99.90
59128;DHT22;44912;52.754;5.994;2023-07-20T00:10:50;14.80;99.90
59128;DHT22;44912;52.754;5.994;2023-07-20T00:13:16;14.90;99.90
59128;DHT22;44912;52.754;5.994;2023-07-20T00:15:44;14.90;99.90
59128;DHT22;44912;52.754;5.994;2023-07-20T00:18:09;14.90;99.90
59128;DHT22;44912;52.754;5.994;2023-07-20T00:20:35;14.90;99.90
59128;DHT22;44912;52.754;5.994;2023-07-20T00:23:00;15.00;99.90
59128;DHT22;44912;52.754;5.994;2023-07-20T00:25:26;14.90;99.90
59128;DHT22;44912;52.754;5.994;2023-07-20T00:27:52;15.00;99.90
59128;DHT22;44912;52.754;5.994;2023-07-20T00:30:18;15.00;99.90
59128;DHT22;44912;52.754;5.994;2023-07-20T00:32:44;15.00;99.90
59128;DHT22;44912;52.754;5.994;2023-07-20T00:35:10;14.90;99.90
59128;DHT22;44912;52.754;5.994;2023-07-20T00:37:37;14.90;99.90
59128;DHT22;44912;52.754;5.994;2023-07-20T00:40:03;14.90;99.90
59128;DHT22;44912;52.754;5.994;2023-07-20T00:42:30;14.80;99.90
59128;DHT22;44912;52.754;5.994;2023-07-20T00:44:55;14.80;99.90
59128;DHT22;44912;52.754;5.994;2023-07-20T00:47:21;14.80;99.90
59128;DHT22;44912;52.754;5.994;2023-07-20T00:49:46;14.70;99.90
59128;DHT22;44912;52.754;5.994;2023-07-20T00:52:13;14.60;99.90
59128;DHT22;44912;52.754;5.994;2023-07-20T00:54:41;14.70;99.90
59128;DHT22;44912;52.754;5.994;2023-07-20T00:57:07;14.60;99.90
59128;DHT22;44912;52.754;5.994;2023-07-20T00:59:34;14.50;99.90
59128;DHT22;44912;52.754;5.994;2023-07-20T01:01:59;14.50;99.90
59128;DHT22;44912;52.754;5.994;2023-07-20T01:04:25;14.40;99.90
59128;DHT22;44912;52.754;5.994;2023-07-20T01:07:10;14.40;99.90
59128;DHT22;44912;52.754;5.994;2023-07-20T01:09:39;14.30;99.90
59128;DHT22;44912;52.754;5.994;2023-07-20T01:12:12;14.20;99.90
59128;DHT22;44912;52.754;5.994;2023-07-20T01:14:39;14.20;99.90
59128;DHT22;44912;52.754;5.994;2023-07-20T01:17:04;14.20;99.90
59128;DHT22;44912;52.754;5.994;2023-07-20T01:19:30;14.00;99.90
59128;DHT22;44912;52.754;5.994;2023-07-20T01:32:57;13.90;99.90
59128;DHT22;44912;52.754;5.994;2023-07-20T01:35:27;13.90;99.90
59128;DHT22;44912;52.754;5.994;2023-07-20T01:37:54;13.80;99.90
59128;DHT22;44912;52.754;5.994;2023-07-20T01:40:21;13.70;99.90
59128;DHT22;44912;52.754;5.994;2023-07-20T01:42:47;13.80;99.90
59128;DHT22;44912;52.754;5.994;2023-07-20T01:45:13;13.70;99.90
59128;DHT22;44912;52.754;5.994;2023-07-20T01:47:39;13.60;99.90
59128;DHT22;44912;52.754;5.994;2023-07-20T01:50:06;13.60;99.90
59128;DHT22;44912;52.754;5.994;2023-07-20T01:52:32;13.50;99.90
59128;DHT22;44912;52.754;5.994;2023-07-20T01:54:57;13.30;99.90
59128;DHT22;44912;52.754;5.994;2023-07-20T01:57:23;13.10;99.90
59128;DHT22;44912;52.754;5.994;2023-07-20T01:59:48;13.10;99.90
59128;DHT22;44912;52.754;5.994;2023-07-20T02:02:14;13.00;99.90
59128;DHT22;44912;52.754;5.994;2023-07-20T02:04:39;13.00;99.90
59128;DHT22;44912;52.754;5.994;2023-07-20T02:07:05;12.90;99.90
59128;DHT22;44912;52.754;5.994;2023-07-20T02:09:31;12.90;99.90
59128;DHT22;44912;52.754;5.994;2023-07-20T02:11:56;12.90;99.90
59128;DHT22;44912;52.754;5.994;2023-07-20T02:14:22;13.00;99.90
59128;DHT22;44912;52.754;5.994;2023-07-20T02:16:48;12.90;99.90
59128;DHT22;44912;52.754;5.994;2023-07-20T02:19:18;12.90;99.90
59128;DHT22;44912;52.754;5.994;2023-07-20T02:21:44;13.00;99.90
59128;DHT22;44912;52.754;5.994;2023-07-20T02:24:10;12.90;99.90
59128;DHT22;44912;52.754;5.994;2023-07-20T02:26:35;12.90;99.90
59128;DHT22;44912;52.754;5.994;2023-07-20T02:29:01;12.90;99.90
59128;DHT22;44912;52.754;5.994;2023-07-20T02:31:30;12.90;99.90
59128;DHT22;44912;52.754;5.994;2023-07-20T02:33:55;12.80;99.90
59128;DHT22;44912;52.754;5.994;2023-07-20T02:36:21;12.80;99.90
59128;DHT22;44912;52.754;5.994;2023-07-20T02:38:46;12.80;99.90
59128;DHT22;44912;52.754;5.994;2023-07-20T02:41:13;12.80;99.90
59128;DHT22;44912;52.754;5.994;2023-07-20T02:43:39;12.80;99.90
59128;DHT22;44912;52.754;5.994;2023-07-20T02:46:04;12.90;99.90
59128;DHT22;44912;52.754;5.994;2023-07-20T02:48:30;12.80;99.90
59128;DHT22;44912;52.754;5.994;2023-07-20T02:50:55;12.80;99.90
59128;DHT22;44912;52.754;5.994;2023-07-20T02:53:21;12.80;99.90
59128;DHT22;44912;52.754;5.994;2023-07-20T02:55:46;12.80;99.90
59128;DHT22;44912;52.754;5.994;2023-07-20T02:58:13;12.80;99.90
59128;DHT22;44912;52.754;5.994;2023-07-20T03:00:38;12.70;99.90
59128;DHT22;44912;52.754;5.994;2023-07-20T03:03:03;12.70;99.90
59128;DHT22;44912;52.754;5.994;2023-07-20T03:05:29;12.80;99.90
59128;DHT22;44912;52.754;5.994;2023-07-20T03:07:55;12.80;99.90
59128;DHT22;44912;52.754;5.994;2023-07-20T03:10:21;12.80;99.90
59128;DHT22;44912;52.754;5.994;2023-07-20T03:12:47;12.80;99.90
59128;DHT22;44912;52.754;5.994;2023-07-20T03:15:12;12.70;99.90
59128;DHT22;44912;52.754;5.994;2023-07-20T03:17:38;12.70;99.90
59128;DHT22;44912;52.754;5.994;2023-07-20T03:20:04;12.60;99.90
59128;DHT22;44912;52.754;5.994;2023-07-20T03:22:30;12.50;99.90
59128;DHT22;44912;52.754;5.994;2023-07-20T03:24:56;12.50;99.90
59128;DHT22;44912;52.754;5.994;2023-07-20T03:27:21;12.40;99.90
59128;DHT22;44912;52.754;5.994;2023-07-20T03:29:47;12.30;99.90
59128;DHT22;44912;52.754;5.994;2023-07-20T03:32:12;12.30;99.90
59128;DHT22;44912;52.754;5.994;2023-07-20T03:34:38;12.40;99.90
59128;DHT22;44912;52.754;5.994;2023-07-20T03:37:04;12.40;99.90
59128;DHT22;44912;52.754;5.994;2023-07-20T03:39:30;12.40;99.90
59128;DHT22;44912;52.754;5.994;2023-07-20T03:41:57;12.50;99.90
59128;DHT22;44912;52.754;5.994;2023-07-20T03:44:22;12.50;99.90
59128;DHT22;44912;52.754;5.994;2023-07-20T03:46:48;12.50;99.90
59128;DHT22;44912;52.754;5.994;2023-07-20T03:49:13;12.40;99.90
59128;DHT22;44912;52.754;5.994;2023-07-20T03:51:39;12.50;99.90
59128;DHT22;44912;52.754;5.994;2023-07-20T03:54:04;12.30;99.90
59128;DHT22;44912;52.754;5.994;2023-07-20T03:56:30;12.30;99.90
59128;DHT22;44912;52.754;5.994;2023-07-20T03:58:59;12.20;99.90
59128;DHT22;44912;52.754;5.994;2023-07-20T04:01:25;12.00;99.90
59128;DHT22;44912;52.754;5.994;2023-07-20T04:03:50;11.90;99.90
59128;DHT22;44912;52.754;5.994;2023-07-20T04:06:16;11.80;99.90
59128;DHT22;44912;52.754;5.994;2023-07-20T04:08:43;11.70;99.90
59128;DHT22;44912;52.754;5.994;2023-07-20T04:11:08;11.80;99.90
59128;DHT22;44912;52.754;5.994;2023-07-20T04:13:34;11.80;99.90
59128;DHT22;44912;52.754;5.994;2023-07-20T04:16:00;11.80;99.90
59128;DHT22;44912;52.754;5.994;2023-07-20T04:18:25;11.60;99.90
59128;DHT22;44912;52.754;5.994;2023-07-20T04:20:51;11.40;99.90
59128;DHT22;44912;52.754;5.994;2023-07-20T04:23:16;11.50;99.90
59128;DHT22;44912;52.754;5.994;2023-07-20T04:25:42;11.60;99.90
59128;DHT22;44912;52.754;5.994;2023-07-20T04:28:08;11.60;99.90
59128;DHT22;44912;52.754;5.994;2023-07-20T04:30:36;11.40;99.90
59128;DHT22;44912;52.754;5.994;2023-07-20T04:33:03;11.50;99.90
59128;DHT22;44912;52.754;5.994;2023-07-20T04:35:46;11.60;99.90
59128;DHT22;44912;52.754;5.994;2023-07-20T04:38:12;11.60;99.90
59128;DHT22;44912;52.754;5.994;2023-07-20T04:40:37;11.70;99.90
59128;DHT22;44912;52.754;5.994;2023-07-20T04:43:03;11.80;99.90
59128;DHT22;44912;52.754;5.994;2023-07-20T04:45:28;11.80;99.90
59128;DHT22;44912;52.754;5.994;2023-07-20T04:47:55;11.90;99.90
59128;DHT22;44912;52.754;5.994;2023-07-20T04:50:20;12.00;99.90
59128;DHT22;44912;52.754;5.994;2023-07-20T04:52:46;12.00;99.90
59128;DHT22;44912;52.754;5.994;2023-07-20T04:55:12;12.10;99.90
59128;DHT22;44912;52.754;5.994;2023-07-20T04:57:37;12.20;99.90
59128;DHT22;44912;52.754;5.994;2023-07-20T05:00:03;12.40;99.90
59128;DHT22;44912;52.754;5.994;2023-07-20T05:02:29;12.40;99.90
59128;DHT22;44912;52.754;5.994;2023-07-20T05:04:54;12.60;99.90
59128;DHT22;44912;52.754;5.994;2023-07-20T05:07:20;12.60;99.90
59128;DHT22;44912;52.754;5.994;2023-07-20T05:09:45;12.70;99.90
59128;DHT22;44912;52.754;5.994;2023-07-20T05:12:11;12.80;99.90
59128;DHT22;44912;52.754;5.994;2023-07-20T05:14:38;12.80;99.90
59128;DHT22;44912;52.754;5.994;2023-07-20T05:17:03;13.00;99.90
59128;DHT22;44912;52.754;5.994;2023-07-20T05:19:29;13.00;99.90
59128;DHT22;44912;52.754;5.994;2023-07-20T05:21:54;13.00;99.90
59128;DHT22;44912;52.754;5.994;2023-07-20T05:24:20;13.10;99.90
59128;DHT22;44912;52.754;5.994;2023-07-20T05:26:46;13.30;99.90
59128;DHT22;44912;52.754;5.994;2023-07-20T05:29:11;13.30;99.90
59128;DHT22;44912;52.754;5.994;2023-07-20T05:31:37;13.40;99.90
59128;DHT22;44912;52.754;5.994;2023-07-20T05:34:02;13.40;99.90
59128;DHT22;44912;52.754;5.994;2023-07-20T05:36:28;13.50;99.90
59128;DHT22;44912;52.754;5.994;2023-07-20T05:38:53;13.50;99.90
59128;DHT22;44912;52.754;5.994;2023-07-20T05:41:19;13.70;99.90
59128;DHT22;44912;52.754;5.994;2023-07-20T05:43:44;13.80;99.90
59128;DHT22;44912;52.754;5.994;2023-07-20T05:46:10;13.90;99.90
59128;DHT22;44912;52.754;5.994;2023-07-20T05:48:35;14.10;99.90
59128;DHT22;44912;52.754;5.994;2023-07-20T05:51:01;14.10;99.90
59128;DHT22;44912;52.754;5.994;2023-07-20T05:53:26;14.10;99.90
59128;DHT22;44912;52.754;5.994;2023-07-20T05:55:55;14.30;99.90
59128;DHT22;44912;52.754;5.994;2023-07-20T05:58:20;14.50;99.90
59128;DHT22;44912;52.754;5.994;2023-07-20T06:00:50;14.50;99.90
59128;DHT22;44912;52.754;5.994;2023-07-20T06:03:16;14.50;99.90
59128;DHT22;44912;52.754;5.994;2023-07-20T06:05:42;14.70;99.90
59128;DHT22;44912;52.754;5.994;2023-07-20T06:08:08;14.80;99.90
59128;DHT22;44912;52.754;5.994;2023-07-20T06:10:34;14.90;99.90
59128;DHT22;44912;52.754;5.994;2023-07-20T06:12:59;15.00;99.90
59128;DHT22;44912;52.754;5.994;2023-07-20T06:15:27;15.10;99.90
59128;DHT22;44912;52.754;5.994;2023-07-20T06:17:54;15.10;99.90
59128;DHT22;44912;52.754;5.994;2023-07-20T06:20:21;15.20;99.90
59128;DHT22;44912;52.754;5.994;2023-07-20T06:22:46;15.20;99.90
59128;DHT22;44912;52.754;5.994;2023-07-20T06:25:13;15.20;99.90
59128;DHT22;44912;52.754;5.994;2023-07-20T06:27:38;15.30;99.90
59128;DHT22;44912;52.754;5.994;2023-07-20T06:30:04;15.30;99.90
59128;DHT22;44912;52.754;5.994;2023-07-20T06:32:30;15.30;99.90
59128;DHT22;44912;52.754;5.994;2023-07-20T06:34:56;15.50;99.90
59128;DHT22;44912;52.754;5.994;2023-07-20T06:37:21;15.60;99.90
59128;DHT22;44912;52.754;5.994;2023-07-20T06:39:47;15.70;99.90
59128;DHT22;44912;52.754;5.994;2023-07-20T06:42:12;15.80;99.90
59128;DHT22;44912;52.754;5.994;2023-07-20T06:44:39;15.90;99.90
59128;DHT22;44912;52.754;5.994;2023-07-20T06:47:04;16.00;99.90
59128;DHT22;44912;52.754;5.994;2023-07-20T06:49:30;16.10;99.90
59128;DHT22;44912;52.754;5.994;2023-07-20T06:51:56;16.10;99.90
59128;DHT22;44912;52.754;5.994;2023-07-20T06:54:22;16.20;99.90
59128;DHT22;44912;52.754;5.994;2023-07-20T06:56:47;16.20;99.90
59128;DHT22;44912;52.754;5.994;2023-07-20T06:59:13;16.30;99.90
59128;DHT22;44912;52.754;5.994;2023-07-20T07:01:39;16.40;99.90
59128;DHT22;44912;52.754;5.994;2023-07-20T07:04:04;16.50;99.90
59128;DHT22;44912;52.754;5.994;2023-07-20T07:06:31;16.60;99.90
59128;DHT22;44912;52.754;5.994;2023-07-20T07:08:56;16.80;99.90
59128;DHT22;44912;52.754;5.994;2023-07-20T07:11:22;16.90;99.90
59128;DHT22;44912;52.754;5.994;2023-07-20T07:13:48;16.90;99.90
59128;DHT22;44912;52.754;5.994;2023-07-20T07:16:19;16.80;99.90
59128;DHT22;44912;52.754;5.994;2023-07-20T07:18:45;16.80;99.90
59128;DHT22;44912;52.754;5.994;2023-07-20T07:21:11;16.80;99.90
59128;DHT22;44912;52.754;5.994;2023-07-20T07:23:38;16.70;99.90
59128;DHT22;44912;52.754;5.994;2023-07-20T07:26:04;16.60;99.90
59128;DHT22;44912;52.754;5.994;2023-07-20T07:28:29;16.50;99.90
59128;DHT22;44912;52.754;5.994;2023-07-20T07:30:55;16.30;99.90
59128;DHT22;44912;52.754;5.994;2023-07-20T07:33:22;16.30;99.90
59128;DHT22;44912;52.754;5.994;2023-07-20T07:35:49;16.20;99.90
59128;DHT22;44912;52.754;5.994;2023-07-20T07:38:14;16.30;99.90
59128;DHT22;44912;52.754;5.994;2023-07-20T07:40:40;16.40;99.90
59128;DHT22;44912;52.754;5.994;2023-07-20T07:43:05;16.50;99.90
59128;DHT22;44912;52.754;5.994;2023-07-20T07:45:34;16.70;99.90
59128;DHT22;44912;52.754;5.994;2023-07-20T07:48:01;16.70;99.90
59128;DHT22;44912;52.754;5.994;2023-07-20T07:50:27;16.80;99.90
59128;DHT22;44912;52.754;5.994;2023-07-20T07:52:53;16.90;99.90
59128;DHT22;44912;52.754;5.994;2023-07-20T07:55:19;17.00;99.90
59128;DHT22;44912;52.754;5.994;2023-07-20T07:57:45;17.00;99.90
59128;DHT22;44912;52.754;5.994;2023-07-20T08:00:13;17.00;99.90
59128;DHT22;44912;52.754;5.994;2023-07-20T08:02:41;16.90;99.90
59128;DHT22;44912;52.754;5.994;2023-07-20T08:05:07;16.90;99.90
59128;DHT22;44912;52.754;5.994;2023-07-20T08:07:33;16.90;99.90
59128;DHT22;44912;52.754;5.994;2023-07-20T08:09:58;16.90;99.90
59128;DHT22;44912;52.754;5.994;2023-07-20T08:12:26;17.00;99.90
59128;DHT22;44912;52.754;5.994;2023-07-20T08:14:51;16.90;99.90
59128;DHT22;44912;52.754;5.994;2023-07-20T08:17:17;16.90;99.90
59128;DHT22;44912;52.754;5.994;2023-07-20T08:19:43;17.00;99.90
59128;DHT22;44912;52.754;5.994;2023-07-20T08:22:09;17.00;99.90
59128;DHT22;44912;52.754;5.994;2023-07-20T08:24:42;16.90;99.90
59128;DHT22;44912;52.754;5.994;2023-07-20T08:27:09;16.90;99.90
59128;DHT22;44912;52.754;5.994;2023-07-20T08:29:35;16.90;99.90
59128;DHT22;44912;52.754;5.994;2023-07-20T08:32:02;16.90;99.90
59128;DHT22;44912;52.754;5.994;2023-07-20T08:34:27;17.00;99.90
59128;DHT22;44912;52.754;5.994;2023-07-20T08:36:53;17.20;99.90
59128;DHT22;44912;52.754;5.994;2023-07-20T08:39:18;17.40;99.90
59128;DHT22;44912;52.754;5.994;2023-07-20T08:41:44;17.60;99.90
59128;DHT22;44912;52.754;5.994;2023-07-20T08:44:10;17.90;99.90
59128;DHT22;44912;52.754;5.994;2023-07-20T08:46:38;18.20;99.90
59128;DHT22;44912;52.754;5.994;2023-07-20T08:49:04;18.30;99.90
59128;DHT22;44912;52.754;5.994;2023-07-20T08:51:30;18.40;99.90
59128;DHT22;44912;52.754;5.994;2023-07-20T08:53:58;18.60;99.90
59128;DHT22;44912;52.754;5.994;2023-07-20T08:56:25;18.60;99.90
59128;DHT22;44912;52.754;5.994;2023-07-20T08:58:53;18.50;99.90
59128;DHT22;44912;52.754;5.994;2023-07-20T09:01:20;18.40;99.90
59128;DHT22;44912;52.754;5.994;2023-07-20T09:03:46;18.30;99.90
59128;DHT22;44912;52.754;5.994;2023-07-20T09:06:12;18.20;99.90
59128;DHT22;44912;52.754;5.994;2023-07-20T09:08:39;18.20;99.90
59128;DHT22;44912;52.754;5.994;2023-07-20T09:11:05;18.40;99.90
59128;DHT22;44912;52.754;5.994;2023-07-20T09:13:32;18.50;99.90
59128;DHT22;44912;52.754;5.994;2023-07-20T09:15:58;18.40;99.90
59128;DHT22;44912;52.754;5.994;2023-07-20T09:18:25;18.30;99.90
59128;DHT22;44912;52.754;5.994;2023-07-20T09:20:51;18.30;99.90
59128;DHT22;44912;52.754;5.994;2023-07-20T09:23:16;18.30;99.90
59128;DHT22;44912;52.754;5.994;2023-07-20T09:25:42;18.30;99.90
59128;DHT22;44912;52.754;5.994;2023-07-20T09:28:07;18.30;99.90
59128;DHT22;44912;52.754;5.994;2023-07-20T09:30:33;18.30;99.90
59128;DHT22;44912;52.754;5.994;2023-07-20T09:32:59;18.30;99.90
59128;DHT22;44912;52.754;5.994;2023-07-20T09:35:25;18.30;99.90
59128;DHT22;44912;52.754;5.994;2023-07-20T09:38:01;18.30;99.90
59128;DHT22;44912;52.754;5.994;2023-07-20T09:40:27;18.30;99.90
59128;DHT22;44912;52.754;5.994;2023-07-20T09:42:54;18.20;99.90
59128;DHT22;44912;52.754;5.994;2023-07-20T09:45:57;18.20;99.90
59128;DHT22;44912;52.754;5.994;2023-07-20T09:48:24;18.30;99.90
59128;DHT22;44912;52.754;5.994;2023-07-20T09:50:50;18.30;99.90
59128;DHT22;44912;52.754;5.994;2023-07-20T09:53:17;18.30;99.90
59128;DHT22;44912;52.754;5.994;2023-07-20T09:55:44;18.30;99.90
59128;DHT22;44912;52.754;5.994;2023-07-20T09:58:10;18.40;99.90
59128;DHT22;44912;52.754;5.994;2023-07-20T10:00:37;18.40;99.90
59128;DHT22;44912;52.754;5.994;2023-07-20T10:03:05;18.40;99.90
59128;DHT22;44912;52.754;5.994;2023-07-20T10:05:35;18.50;99.90
59128;DHT22;44912;52.754;5.994;2023-07-20T10:08:02;18.50;99.90
59128;DHT22;44912;52.754;5.994;2023-07-20T10:10:31;18.50;99.90
59128;DHT22;44912;52.754;5.994;2023-07-20T10:13:01;18.40;99.90
59128;DHT22;44912;52.754;5.994;2023-07-20T10:15:37;18.40;99.90
59128;DHT22;44912;52.754;5.994;2023-07-20T10:18:49;18.30;99.90
59128;DHT22;44912;52.754;5.994;2023-07-20T10:21:17;18.40;99.90
59128;DHT22;44912;52.754;5.994;2023-07-20T10:23:45;18.40;99.90
59128;DHT22;44912;52.754;5.994;2023-07-20T10:26:11;18.40;99.90
59128;DHT22;44912;52.754;5.994;2023-07-20T10:28:38;18.60;99.90
59128;DHT22;44912;52.754;5.994;2023-07-20T10:31:05;18.60;99.90
59128;DHT22;44912;52.754;5.994;2023-07-20T10:33:31;18.80;99.90
59128;DHT22;44912;52.754;5.994;2023-07-20T10:36:01;19.00;99.90
59128;DHT22;44912;52.754;5.994;2023-07-20T10:38:53;19.10;99.90
59128;DHT22;44912;52.754;5.994;2023-07-20T10:41:28;19.00;99.90
59128;DHT22;44912;52.754;5.994;2023-07-20T10:44:09;19.10;99.90
59128;DHT22;44912;52.754;5.994;2023-07-20T10:49:05;19.10;99.90
59128;DHT22;44912;52.754;5.994;2023-07-20T10:51:48;19.10;99.90
59128;DHT22;44912;52.754;5.994;2023-07-20T10:56:44;18.80;99.90
59128;DHT22;44912;52.754;5.994;2023-07-20T10:59:37;18.80;99.90
59128;DHT22;44912;52.754;5.994;2023-07-20T11:02:08;18.80;99.90
59128;DHT22;44912;52.754;5.994;2023-07-20T11:04:44;19.00;99.90
59128;DHT22;44912;52.754;5.994;2023-07-20T11:07:14;19.00;99.90
59128;DHT22;44912;52.754;5.994;2023-07-20T11:09:40;19.10;99.90
59128;DHT22;44912;52.754;5.994;2023-07-20T11:12:10;19.40;99.90
59128;DHT22;44912;52.754;5.994;2023-07-20T11:14:43;19.50;99.90
59128;DHT22;44912;52.754;5.994;2023-07-20T11:17:14;19.50;99.90
59128;DHT22;44912;52.754;5.994;2023-07-20T11:19:40;19.30;99.90
59128;DHT22;44912;52.754;5.994;2023-07-20T11:22:07;19.10;99.90
59128;DHT22;44912;52.754;5.994;2023-07-20T11:24:33;19.00;99.90
59128;DHT22;44912;52.754;5.994;2023-07-20T11:26:59;18.90;99.90
59128;DHT22;44912;52.754;5.994;2023-07-20T11:29:26;19.00;99.90
59128;DHT22;44912;52.754;5.994;2023-07-20T11:31:52;18.90;99.90
59128;DHT22;44912;52.754;5.994;2023-07-20T11:34:18;18.90;99.90
59128;DHT22;44912;52.754;5.994;2023-07-20T11:36:49;18.90;99.90
59128;DHT22;44912;52.754;5.994;2023-07-20T11:39:17;19.00;99.90
59128;DHT22;44912;52.754;5.994;2023-07-20T11:41:57;19.30;99.90
59128;DHT22;44912;52.754;5.994;2023-07-20T11:44:24;19.60;99.90
59128;DHT22;44912;52.754;5.994;2023-07-20T11:47:13;19.80;99.90
59128;DHT22;44912;52.754;5.994;2023-07-20T11:49:43;20.00;99.90
59128;DHT22;44912;52.754;5.994;2023-07-20T11:52:10;20.20;99.90
59128;DHT22;44912;52.754;5.994;2023-07-20T11:54:38;20.10;99.90
59128;DHT22;44912;52.754;5.994;2023-07-20T11:57:06;20.00;99.90
59128;DHT22;44912;52.754;5.994;2023-07-20T11:59:32;20.00;99.90
59128;DHT22;44912;52.754;5.994;2023-07-20T12:02:01;20.20;99.90
59128;DHT22;44912;52.754;5.994;2023-07-20T12:04:28;20.50;99.90
59128;DHT22;44912;52.754;5.994;2023-07-20T12:06:54;20.50;99.90
59128;DHT22;44912;52.754;5.994;2023-07-20T12:09:20;20.80;99.90
59128;DHT22;44912;52.754;5.994;2023-07-20T12:11:49;20.90;99.90
59128;DHT22;44912;52.754;5.994;2023-07-20T12:14:15;20.80;99.90
59128;DHT22;44912;52.754;5.994;2023-07-20T12:16:40;20.80;99.90
59128;DHT22;44912;52.754;5.994;2023-07-20T12:19:09;20.50;99.90
59128;DHT22;44912;52.754;5.994;2023-07-20T12:21:36;20.20;99.90
59128;DHT22;44912;52.754;5.994;2023-07-20T12:24:02;20.00;99.90
59128;DHT22;44912;52.754;5.994;2023-07-20T12:26:29;19.90;99.90
59128;DHT22;44912;52.754;5.994;2023-07-20T12:28:55;19.80;99.90
59128;DHT22;44912;52.754;5.994;2023-07-20T12:31:21;19.70;99.90
59128;DHT22;44912;52.754;5.994;2023-07-20T12:33:48;19.60;99.90
59128;DHT22;44912;52.754;5.994;2023-07-20T12:36:14;19.60;99.90
59128;DHT22;44912;52.754;5.994;2023-07-20T12:38:40;19.40;99.90
59128;DHT22;44912;52.754;5.994;2023-07-20T12:41:07;19.30;99.90
59128;DHT22;44912;52.754;5.994;2023-07-20T12:43:33;19.20;99.90
59128;DHT22;44912;52.754;5.994;2023-07-20T12:45:59;19.10;99.90
59128;DHT22;44912;52.754;5.994;2023-07-20T12:48:25;19.10;99.90
59128;DHT22;44912;52.754;5.994;2023-07-20T12:50:50;19.10;99.90
59128;DHT22;44912;52.754;5.994;2023-07-20T12:53:16;19.20;99.90
59128;DHT22;44912;52.754;5.994;2023-07-20T12:55:42;19.20;99.90
59128;DHT22;44912;52.754;5.994;2023-07-20T12:58:08;19.30;99.90
59128;DHT22;44912;52.754;5.994;2023-07-20T13:00:33;19.40;99.90
59128;DHT22;44912;52.754;5.994;2023-07-20T13:02:59;19.60;99.90
59128;DHT22;44912;52.754;5.994;2023-07-20T13:05:25;19.70;99.90
59128;DHT22;44912;52.754;5.994;2023-07-20T13:07:50;19.90;99.90
59128;DHT22;44912;52.754;5.994;2023-07-20T13:10:16;20.20;99.90
59128;DHT22;44912;52.754;5.994;2023-07-20T13:12:41;20.50;99.90
59128;DHT22;44912;52.754;5.994;2023-07-20T13:15:09;20.50;99.90
59128;DHT22;44912;52.754;5.994;2023-07-20T13:17:38;20.40;99.90
59128;DHT22;44912;52.754;5.994;2023-07-20T13:20:06;20.30;99.90
59128;DHT22;44912;52.754;5.994;2023-07-20T13:22:33;20.20;99.90
59128;DHT22;44912;52.754;5.994;2023-07-20T13:24:59;20.40;99.90
59128;DHT22;44912;52.754;5.994;2023-07-20T13:27:25;20.50;99.90
59128;DHT22;44912;52.754;5.994;2023-07-20T13:29:53;20.70;99.90
59128;DHT22;44912;52.754;5.994;2023-07-20T13:32:19;20.90;99.90
59128;DHT22;44912;52.754;5.994;2023-07-20T13:34:45;21.10;99.90
59128;DHT22;44912;52.754;5.994;2023-07-20T13:37:12;21.10;99.90
59128;DHT22;44912;52.754;5.994;2023-07-20T13:39:38;21.20;99.90
59128;DHT22;44912;52.754;5.994;2023-07-20T13:42:04;21.20;99.90
59128;DHT22;44912;52.754;5.994;2023-07-20T13:44:33;21.20;99.90
59128;DHT22;44912;52.754;5.994;2023-07-20T13:47:00;21.20;99.90
59128;DHT22;44912;52.754;5.994;2023-07-20T13:49:28;21.20;99.90
59128;DHT22;44912;52.754;5.994;2023-07-20T13:51:53;21.30;99.90
59128;DHT22;44912;52.754;5.994;2023-07-20T13:54:19;21.30;99.90
59128;DHT22;44912;52.754;5.994;2023-07-20T13:56:45;21.30;99.90
59128;DHT22;44912;52.754;5.994;2023-07-20T13:59:10;21.40;99.90
59128;DHT22;44912;52.754;5.994;2023-07-20T14:01:36;21.40;99.90
59128;DHT22;44912;52.754;5.994;2023-07-20T14:04:02;21.30;99.90
59128;DHT22;44912;52.754;5.994;2023-07-20T14:06:30;21.20;99.90
59128;DHT22;44912;52.754;5.994;2023-07-20T14:08:56;21.20;99.90
59128;DHT22;44912;52.754;5.994;2023-07-20T14:11:23;21.20;99.90
59128;DHT22;44912;52.754;5.994;2023-07-20T14:13:52;21.40;99.90
59128;DHT22;44912;52.754;5.994;2023-07-20T14:16:24;21.40;99.90
59128;DHT22;44912;52.754;5.994;2023-07-20T14:18:50;21.40;99.90
59128;DHT22;44912;52.754;5.994;2023-07-20T14:21:20;21.60;99.90
59128;DHT22;44912;52.754;5.994;2023-07-20T14:23:51;21.70;99.90
59128;DHT22;44912;52.754;5.994;2023-07-20T14:26:16;21.60;99.90
59128;DHT22;44912;52.754;5.994;2023-07-20T14:28:42;21.20;99.90
59128;DHT22;44912;52.754;5.994;2023-07-20T14:31:08;21.20;99.90
59128;DHT22;44912;52.754;5.994;2023-07-20T14:33:33;21.20;99.90
59128;DHT22;44912;52.754;5.994;2023-07-20T14:35:59;21.10;99.90
59128;DHT22;44912;52.754;5.994;2023-07-20T14:38:27;21.00;99.90
59128;DHT22;44912;52.754;5.994;2023-07-20T14:40:53;20.70;99.90
59128;DHT22;44912;52.754;5.994;2023-07-20T14:43:19;20.80;99.90
59128;DHT22;44912;52.754;5.994;2023-07-20T14:45:44;21.00;99.90
59128;DHT22;44912;52.754;5.994;2023-07-20T14:48:11;20.90;99.90
59128;DHT22;44912;52.754;5.994;2023-07-20T14:50:36;20.60;99.90
59128;DHT22;44912;52.754;5.994;2023-07-20T14:53:02;20.30;99.90
59128;DHT22;44912;52.754;5.994;2023-07-20T14:55:28;20.30;99.90
59128;DHT22;44912;52.754;5.994;2023-07-20T14:57:54;20.20;99.90
59128;DHT22;44912;52.754;5.994;2023-07-20T15:00:19;20.10;99.90
59128;DHT22;44912;52.754;5.994;2023-07-20T15:02:45;20.00;99.90
59128;DHT22;44912;52.754;5.994;2023-07-20T15:05:11;19.90;99.90
59128;DHT22;44912;52.754;5.994;2023-07-20T15:07:37;19.80;99.90
59128;DHT22;44912;52.754;5.994;2023-07-20T15:10:03;19.70;99.90
59128;DHT22;44912;52.754;5.994;2023-07-20T15:12:32;19.60;99.90
59128;DHT22;44912;52.754;5.994;2023-07-20T15:15:08;19.60;99.90
59128;DHT22;44912;52.754;5.994;2023-07-20T15:17:35;19.60;99.90
59128;DHT22;44912;52.754;5.994;2023-07-20T15:20:05;19.60;99.90
59128;DHT22;44912;52.754;5.994;2023-07-20T15:22:34;19.90;99.90
59128;DHT22;44912;52.754;5.994;2023-07-20T15:25:02;20.30;99.90
59128;DHT22;44912;52.754;5.994;2023-07-20T15:27:27;20.60;99.90
59128;DHT22;44912;52.754;5.994;2023-07-20T15:29:53;20.90;99.90
59128;DHT22;44912;52.754;5.994;2023-07-20T15:32:19;21.20;99.90
59128;DHT22;44912;52.754;5.994;2023-07-20T15:34:44;21.20;99.90
59128;DHT22;44912;52.754;5.994;2023-07-20T15:37:10;21.20;99.90
59128;DHT22;44912;52.754;5.994;2023-07-20T15:39:37;21.40;99.90
59128;DHT22;44912;52.754;5.994;2023-07-20T15:42:03;21.70;99.90
59128;DHT22;44912;52.754;5.994;2023-07-20T15:44:29;22.00;99.90